Time;durP1;ratioP1;P1;durP2;ratioP2;P2;SDS_P1;SDS_P2;PMS_P1;PMS_P2;Temp;Humidity;BMP_temperature;BMP_pressure;BME280_temperature;BME280_humidity;BME280_pressure;Samples;Min_cycle;Max_cycle;Signal;HPM_P1;HPM_P2
2021/01/27 00:00:48;;;;;;;11.52;6.88;;;2.10;99.90;;;;;;4869733;29;20026;-79
2021/01/27 00:03:14;;;;;;;15.90;7.32;;;2.00;99.90;;;;;;4873304;29;20049;-80
2021/01/27 00:05:44;;;;;;;11.48;6.20;;;2.00;99.90;;;;;;4875279;29;20069;-80
2021/01/27 00:08:10;;;;;;;12.48;7.05;;;2.00;99.90;;;;;;4876219;29;20065;-83
2021/01/27 00:10:37;;;;;;;13.63;7.53;;;2.00;99.90;;;;;;4861141;29;20064;-79
2021/01/27 00:13:05;;;;;;;14.10;7.05;;;4.60;99.90;;;;;;4877722;29;20076;-79
2021/01/27 00:15:33;;;;;;;15.73;7.05;;;2.00;99.90;;;;;;4877382;29;20562;-80
2021/01/27 00:18:00;;;;;;;13.00;7.18;;;;;;;;;;4874289;29;20068;-80
2021/01/27 00:20:27;;;;;;;14.88;7.63;;;2.10;99.90;;;;;;4876735;29;20033;-78
2021/01/27 00:22:54;;;;;;;13.43;8.05;;;2.10;99.90;;;;;;4871905;29;20043;-78
2021/01/27 00:25:23;;;;;;;14.05;8.02;;;1.90;99.90;;;;;;4886478;29;20415;-78
2021/01/27 00:27:49;;;;;;;15.25;8.50;;;2.00;99.90;;;;;;4873923;29;20044;-78
2021/01/27 00:30:23;;;;;;;16.45;9.43;;;2.60;99.90;;;;;;4858846;29;20136;-79
2021/01/27 00:32:50;;;;;;;20.27;10.13;;;2.00;99.90;;;;;;4866803;29;20029;-78
2021/01/27 00:35:21;;;;;;;16.02;9.05;;;2.00;99.90;;;;;;4868577;29;20069;-80
2021/01/27 00:37:47;;;;;;;17.27;9.63;;;2.00;99.90;;;;;;4883396;29;20033;-79
2021/01/27 00:40:13;;;;;;;18.52;8.48;;;2.00;99.90;;;;;;4860520;29;20042;-79
2021/01/27 00:42:39;;;;;;;20.38;10.32;;;2.00;99.90;;;;;;4871840;29;20129;-80
2021/01/27 00:45:06;;;;;;;15.32;9.30;;;1.90;99.90;;;;;;4868938;29;20072;-80
2021/01/27 00:47:32;;;;;;;18.40;9.63;;;1.90;99.90;;;;;;4876843;29;20056;-80
2021/01/27 00:49:58;;;;;;;15.93;10.20;;;1.90;99.90;;;;;;4874262;29;20096;-80
2021/01/27 00:52:24;;;;;;;20.38;9.95;;;;;;;;;;4873922;29;20456;-79
2021/01/27 00:54:50;;;;;;;16.30;9.15;;;1.90;99.90;;;;;;4873464;29;20037;-79
2021/01/27 00:57:18;;;;;;;18.63;10.48;;;;;;;;;;4863734;29;20045;-79
2021/01/27 00:59:44;;;;;;;17.92;9.57;;;;;;;;;;4875916;29;20033;-80
2021/01/27 01:02:09;;;;;;;16.67;9.27;;;1.90;99.90;;;;;;4871595;29;20049;-81
2021/01/27 01:04:35;;;;;;;17.60;9.77;;;1.90;99.90;;;;;;4875236;29;20057;-78
2021/01/27 01:07:01;;;;;;;14.45;8.65;;;;;;;;;;4878046;29;20053;-81
2021/01/27 01:09:27;;;;;;;18.83;9.55;;;1.90;99.90;;;;;;4875751;29;20056;-79
2021/01/27 01:11:54;;;;;;;20.42;10.60;;;1.90;99.90;;;;;;4880001;29;20037;-80
2021/01/27 01:14:20;;;;;;;18.45;10.10;;;;;;;;;;4854868;29;20049;-81
2021/01/27 01:16:45;;;;;;;20.52;10.63;;;1.90;99.90;;;;;;4875069;29;20056;-80
2021/01/27 01:19:11;;;;;;;19.52;10.18;;;1.90;99.90;;;;;;4872587;29;20456;-80
2021/01/27 01:21:37;;;;;;;20.23;10.75;;;1.90;99.90;;;;;;4876112;29;20060;-78
2021/01/27 01:24:03;;;;;;;17.85;10.23;;;2.00;99.90;;;;;;4880434;29;20045;-80
2021/01/27 01:26:29;;;;;;;17.83;9.80;;;1.90;99.90;;;;;;4863126;29;20051;-80
2021/01/27 01:28:55;;;;;;;19.73;10.60;;;;;;;;;;4848283;29;20077;-79
2021/01/27 01:31:21;;;;;;;20.05;9.88;;;;;;;;;;4879943;29;20037;-79
2021/01/27 01:33:46;;;;;;;18.23;10.38;;;2.00;99.90;;;;;;4882719;29;20056;-79
2021/01/27 01:36:12;;;;;;;21.30;10.23;;;;;;;;;;4878327;29;20048;-82
2021/01/27 01:38:38;;;;;;;16.90;9.52;;;2.10;99.90;;;;;;4880492;29;20037;-80
2021/01/27 01:41:04;;;;;;;20.80;10.50;;;4.40;99.90;;;;;;4862411;29;20049;-78
2021/01/27 01:43:35;;;;;;;18.13;10.38;;;3.80;99.90;;;;;;4876663;29;20045;-79
2021/01/27 01:46:05;;;;;;;19.15;10.52;;;2.10;99.90;;;;;;4881451;29;20056;-80
2021/01/27 01:48:30;;;;;;;18.90;9.65;;;2.10;99.90;;;;;;4874781;29;20048;-79
2021/01/27 01:51:24;;;;;;;22.92;10.70;;;2.10;99.90;;;;;;4878349;29;20053;-78
2021/01/27 01:53:55;;;;;;;18.67;10.45;;;2.10;99.90;;;;;;4879544;29;20037;-81
2021/01/27 01:56:25;;;;;;;23.02;11.00;;;2.10;99.90;;;;;;4878197;29;20045;-78
2021/01/27 01:58:58;;;;;;;18.33;10.23;;;2.10;99.90;;;;;;4880298;29;20045;-79
2021/01/27 02:01:24;;;;;;;15.93;9.65;;;5.10;99.90;;;;;;4870093;29;20033;-77
2021/01/27 02:03:51;;;;;;;15.52;9.60;;;2.10;99.90;;;;;;4857972;29;20479;-79
2021/01/27 02:06:18;;;;;;;21.83;10.38;;;;;;;;;;4872149;29;20068;-79
2021/01/27 02:08:49;;;;;;;18.60;10.80;;;2.10;99.90;;;;;;4874838;29;20048;-80
2021/01/27 02:11:21;;;;;;;19.25;10.20;;;2.10;99.90;;;;;;4879212;29;20336;-83
2021/01/27 02:14:15;;;;;;;20.73;9.82;;;2.10;99.90;;;;;;4879201;29;20064;-81
2021/01/27 02:17:05;;;;;;;21.20;9.40;;;2.20;99.90;;;;;;4873206;29;20041;-80
2021/01/27 02:19:52;;;;;;;17.52;9.55;;;2.10;99.90;;;;;;4886464;29;20034;-80
2021/01/27 02:22:39;;;;;;;17.52;9.32;;;2.20;99.90;;;;;;4891144;29;20756;-80
2021/01/27 02:25:56;;;;;;;21.42;9.55;;;2.20;99.90;;;;;;4880706;29;20570;-82
2021/01/27 02:28:56;;;;;;;19.58;9.98;;;2.20;99.90;;;;;;4895307;29;20049;-78
2021/01/27 02:31:41;;;;;;;17.65;9.57;;;2.20;99.90;;;;;;4875939;29;22858;-79
2021/01/27 02:34:28;;;;;;;17.45;9.25;;;2.20;99.90;;;;;;4878393;29;20056;-80
2021/01/27 02:37:02;;;;;;;20.23;9.55;;;2.20;99.90;;;;;;4891205;29;20475;-81
2021/01/27 02:39:32;;;;;;;24.17;10.75;;;2.30;99.90;;;;;;4879525;29;20507;-79
2021/01/27 02:42:12;;;;;;;17.98;9.70;;;4.00;99.90;;;;;;4873628;29;20395;-80
2021/01/27 02:44:57;;;;;;;20.30;8.95;;;2.30;99.90;;;;;;4872667;29;20144;-79
2021/01/27 02:47:52;;;;;;;14.85;9.25;;;2.20;99.90;;;;;;4886275;29;20041;-79
2021/01/27 02:50:25;;;;;;;19.80;9.18;;;2.40;99.90;;;;;;4876681;29;20061;-80
2021/01/27 02:53:02;;;;;;;16.05;9.80;;;2.40;99.90;;;;;;4878909;29;20029;-79
2021/01/27 02:55:39;;;;;;;15.32;8.63;;;2.50;99.90;;;;;;4875798;29;20037;-81
2021/01/27 02:58:21;;;;;;;16.83;8.98;;;2.50;99.90;;;;;;4877326;29;20048;-79
2021/01/27 03:00:52;;;;;;;21.15;9.43;;;2.50;99.90;;;;;;4878334;29;20044;-80
2021/01/27 03:03:21;;;;;;;19.95;9.18;;;2.40;99.90;;;;;;4877275;29;20036;-79
2021/01/27 03:05:52;;;;;;;16.08;9.52;;;2.50;99.90;;;;;;4878466;29;20041;-79
2021/01/27 03:08:21;;;;;;;19.63;9.57;;;2.50;99.90;;;;;;4875199;29;20041;-79
2021/01/27 03:11:22;;;;;;;17.08;9.27;;;2.50;99.90;;;;;;4871847;29;20041;-80
2021/01/27 03:13:48;;;;;;;17.40;9.70;;;2.50;99.90;;;;;;4891596;29;20058;-79
2021/01/27 03:16:27;;;;;;;18.33;9.95;;;2.50;99.90;;;;;;4874932;29;20148;-78
2021/01/27 03:19:09;;;;;;;21.65;9.73;;;2.50;99.90;;;;;;4888720;29;20152;-81
2021/01/27 03:21:50;;;;;;;17.45;9.63;;;2.50;99.90;;;;;;4888124;29;20049;-79
2021/01/27 03:24:20;;;;;;;;;;;2.20;99.90;;;;;;4872252;29;20037;-77
2021/01/27 03:26:59;;;;;;;17.02;10.15;;;2.50;99.90;;;;;;4889807;29;19951;-79
2021/01/27 03:29:59;;;;;;;21.05;10.88;;;2.50;99.90;;;;;;4875253;29;20053;-80
2021/01/27 03:32:25;;;;;;;23.58;12.07;;;;;;;;;;4873242;29;20435;-81
2021/01/27 03:35:01;;;;;;;21.88;10.90;;;2.40;99.90;;;;;;4874431;29;20037;-78
2021/01/27 03:37:36;;;;;;;20.58;10.82;;;2.40;99.90;;;;;;4890501;29;20105;-80
2021/01/27 03:40:06;;;;;;;20.33;10.60;;;2.40;99.90;;;;;;4887922;29;20041;-79
2021/01/27 03:42:52;;;;;;;20.65;11.02;;;2.30;99.90;;;;;;4888036;29;20045;-81
2021/01/27 03:45:21;;;;;;;24.08;11.23;;;2.30;99.90;;;;;;4875567;29;20029;-81
2021/01/27 03:48:05;;;;;;;23.35;11.18;;;2.30;99.90;;;;;;4877978;29;20037;-79
2021/01/27 03:50:31;;;;;;;22.52;12.10;;;2.30;99.90;;;;;;4875970;29;20040;-79
2021/01/27 03:53:05;;;;;;;21.42;11.38;;;2.30;99.90;;;;;;4879654;29;20037;-83
2021/01/27 03:55:57;;;;;;;21.85;11.30;;;2.40;99.90;;;;;;4876858;29;20055;-82
2021/01/27 03:58:46;;;;;;;19.35;11.15;;;2.30;99.90;;;;;;4859426;29;20102;-79
2021/01/27 04:01:18;;;;;;;21.60;10.98;;;2.30;99.90;;;;;;4890779;29;20045;-79
2021/01/27 04:03:45;;;;;;;33.35;11.93;;;2.30;99.90;;;;;;4873450;29;20041;-81
2021/01/27 04:06:11;;;;;;;24.52;12.23;;;2.30;99.90;;;;;;4875694;29;20028;-80
2021/01/27 04:08:38;;;;;;;20.77;11.45;;;2.40;99.90;;;;;;4884870;29;20044;-79
2021/01/27 04:11:05;;;;;;;20.02;11.50;;;2.30;99.90;;;;;;4870437;29;20037;-81
2021/01/27 04:13:32;;;;;;;22.48;10.38;;;2.30;99.90;;;;;;4891717;29;20037;-80
2021/01/27 04:15:59;;;;;;;19.58;10.48;;;2.40;99.90;;;;;;4879073;29;20068;-78
2021/01/27 04:18:25;;;;;;;17.88;10.57;;;2.40;99.90;;;;;;4877421;29;20449;-81
2021/01/27 04:20:51;;;;;;;19.70;10.73;;;2.30;99.90;;;;;;4879123;29;20146;-80
2021/01/27 04:23:17;;;;;;;19.15;9.68;;;;;;;;;;4882160;29;20037;-80
2021/01/27 04:25:43;;;;;;;18.20;9.90;;;2.30;99.90;;;;;;4877499;29;20123;-77
2021/01/27 04:28:09;;;;;;;20.75;11.02;;;2.30;99.90;;;;;;4876290;29;20052;-78
2021/01/27 04:30:36;;;;;;;23.02;10.93;;;2.30;99.90;;;;;;4877165;29;20040;-79
2021/01/27 04:33:07;;;;;;;21.00;10.77;;;2.30;99.90;;;;;;4872256;29;20499;-79
2021/01/27 04:35:32;;;;;;;;;;;2.30;99.90;;;;;;4879071;29;20045;-79
2021/01/27 04:37:59;;;;;;;22.52;11.48;;;2.30;99.90;;;;;;4876388;29;19967;-80
2021/01/27 04:40:35;;;;;;;17.00;10.27;;;2.20;99.90;;;;;;4877104;29;20053;-79
2021/01/27 04:43:03;;;;;;;15.75;9.27;;;2.20;99.90;;;;;;4875015;29;20096;-81
2021/01/27 04:45:29;;;;;;;16.02;9.98;;;2.20;99.90;;;;;;4872761;29;20117;-81
2021/01/27 04:48:11;;;;;;;16.35;9.82;;;5.50;99.90;;;;;;4874032;29;20108;-80
2021/01/27 04:50:45;;;;;;;20.88;10.77;;;2.20;99.90;;;;;;4873414;29;20092;-79
2021/01/27 04:53:29;;;;;;;16.05;9.88;;;3.20;99.90;;;;;;4869517;29;20499;-78
2021/01/27 04:56:29;;;;;;;17.00;10.65;;;2.10;99.90;;;;;;4875113;29;20132;-79
2021/01/27 04:59:18;;;;;;;21.42;10.88;;;2.10;99.90;;;;;;4878170;29;20048;-78
2021/01/27 05:02:01;;;;;;;18.08;9.98;;;2.10;99.90;;;;;;4892776;29;20033;-79
2021/01/27 05:04:35;;;;;;;19.23;10.27;;;2.10;99.90;;;;;;4888635;29;20041;-79
2021/01/27 05:07:06;;;;;;;16.98;9.43;;;2.20;99.90;;;;;;4877205;29;20061;-78
2021/01/27 05:10:03;;;;;;;17.25;9.52;;;2.20;99.90;;;;;;4879562;29;20439;-78
2021/01/27 05:12:49;;;;;;;15.90;9.38;;;2.20;99.90;;;;;;4880814;29;20037;-78
2021/01/27 05:15:15;;;;;;;17.42;9.52;;;2.30;99.90;;;;;;4882973;29;20047;-80
2021/01/27 05:17:44;;;;;;;17.10;9.48;;;2.30;99.90;;;;;;4873806;29;20076;-79
2021/01/27 05:20:12;;;;;;;14.75;9.40;;;2.30;99.90;;;;;;4878433;29;20081;-79
2021/01/27 05:22:38;;;;;;;18.13;9.95;;;2.30;99.90;;;;;;4872706;29;20038;-78
2021/01/27 05:25:06;;;;;;;16.50;9.60;;;2.30;99.90;;;;;;4874241;29;20049;-77
2021/01/27 05:27:36;;;;;;;16.00;8.82;;;2.20;99.90;;;;;;4877436;29;20041;-78
2021/01/27 05:30:27;;;;;;;16.77;9.48;;;2.30;99.90;;;;;;4881209;29;20088;-79
2021/01/27 05:32:55;;;;;;;17.50;9.82;;;2.30;99.90;;;;;;4877311;29;20048;-77
2021/01/27 05:35:29;;;;;;;16.38;10.05;;;2.20;99.90;;;;;;4873035;29;20486;-78
2021/01/27 05:37:58;;;;;;;20.38;11.65;;;2.20;99.90;;;;;;4879554;29;20117;-83
2021/01/27 05:40:35;;;;;;;19.10;10.23;;;2.20;99.90;;;;;;4885447;29;20590;-77
2021/01/27 05:43:25;;;;;;;20.00;10.07;;;2.10;99.90;;;;;;4881924;29;20403;-80
2021/01/27 05:45:51;;;;;;;19.65;10.57;;;2.10;99.90;;;;;;4875552;29;20053;-81
2021/01/27 05:48:40;;;;;;;16.65;9.35;;;2.10;99.90;;;;;;4882475;29;20021;-80
2021/01/27 05:51:05;;;;;;;15.55;9.50;;;2.10;99.90;;;;;;4877986;29;20065;-79
2021/01/27 05:53:32;;;;;;;14.10;8.00;;;;;;;;;;4881203;29;20044;-82
2021/01/27 05:56:02;;;;;;;14.52;8.23;;;2.10;99.90;;;;;;4883973;29;20044;-81
2021/01/27 05:58:31;;;;;;;16.75;9.77;;;2.00;99.90;;;;;;4892833;29;20124;-82
2021/01/27 06:01:16;;;;;;;15.07;9.27;;;;;;;;;;4891538;29;20064;-82
2021/01/27 06:04:10;;;;;;;16.52;9.77;;;2.00;99.90;;;;;;4888135;29;20140;-85
2021/01/27 06:06:42;;;;;;;15.07;9.25;;;2.00;99.90;;;;;;4875889;29;20041;-80
2021/01/27 06:09:08;;;;;;;15.40;9.50;;;;;;;;;;4876123;29;20086;-83
2021/01/27 06:11:34;;;;;;;16.55;9.27;;;1.90;99.90;;;;;;4866042;29;20083;-78
2021/01/27 06:14:16;;;;;;;12.82;7.55;;;1.90;99.90;;;;;;4871825;29;20049;-80
2021/01/27 06:16:45;;;;;;;17.25;9.23;;;1.80;99.90;;;;;;4875069;29;20045;-79
2021/01/27 06:19:11;;;;;;;17.65;10.32;;;;;;;;;;4881077;29;20087;-80
2021/01/27 06:21:46;;;;;;;18.52;10.23;;;1.80;99.90;;;;;;4882006;29;20045;-79
2021/01/27 06:24:23;;;;;;;18.92;11.23;;;;;;;;;;4874565;29;20044;-79
2021/01/27 06:27:13;;;;;;;19.38;9.80;;;1.80;99.90;;;;;;4877656;29;20064;-81
2021/01/27 06:30:00;;;;;;;12.93;7.75;;;1.70;99.90;;;;;;4874235;29;20080;-78
2021/01/27 06:32:47;;;;;;;12.57;7.25;;;1.80;99.90;;;;;;4869179;29;20083;-78
2021/01/27 06:35:45;;;;;;;13.52;8.20;;;1.80;99.90;;;;;;4874492;29;20550;-81
2021/01/27 06:38:36;;;;;;;7.88;5.30;;;1.70;99.90;;;;;;4880247;29;20056;-80
2021/01/27 06:41:01;;;;;;;10.25;5.35;;;1.80;99.90;;;;;;4875007;29;20386;-80
2021/01/27 06:43:48;;;;;;;7.72;5.10;;;1.80;99.90;;;;;;4879768;29;20076;-79
2021/01/27 06:46:30;;;;;;;9.57;5.70;;;1.80;99.90;;;;;;4889872;29;20039;-80
2021/01/27 06:49:17;;;;;;;9.77;5.85;;;;;;;;;;4881640;29;20049;-79
2021/01/27 06:52:01;;;;;;;6.55;4.40;;;1.80;99.90;;;;;;4876921;29;20205;-78
2021/01/27 06:54:27;;;;;;;8.30;4.63;;;;;;;;;;4881264;29;20044;-77
2021/01/27 06:57:06;;;;;;;6.28;4.18;;;1.70;99.90;;;;;;4884287;29;20041;-79
2021/01/27 06:59:32;;;;;;;7.13;3.83;;;;;;;;;;4881730;29;20039;-80
2021/01/27 07:02:10;;;;;;;9.98;3.72;;;;;;;;;;4879064;29;20033;-80
2021/01/27 07:04:42;;;;;;;6.57;3.83;;;1.80;99.90;;;;;;4880558;29;20052;-79
2021/01/27 07:07:52;;;;;;;6.70;3.78;;;1.80;99.90;;;;;;4891979;29;20116;-79
2021/01/27 07:10:55;;;;;;;5.90;3.45;;;1.90;99.90;;;;;;4852349;29;20655;-80
2021/01/27 07:13:40;;;;;;;4.32;2.80;;;1.90;99.90;;;;;;4874669;29;20426;-80
2021/01/27 07:16:11;;;;;;;6.78;3.00;;;2.10;99.90;;;;;;4888688;29;20067;-80
2021/01/27 07:19:05;;;;;;;3.95;2.45;;;2.10;99.90;;;;;;4875040;29;20105;-80
2021/01/27 07:21:44;;;;;;;4.95;2.30;;;2.10;99.90;;;;;;4881179;29;20036;-77
2021/01/27 07:24:36;;;;;;;5.10;2.88;;;2.10;99.90;;;;;;4877300;29;20120;-79
2021/01/27 07:27:14;;;;;;;6.28;2.70;;;2.00;99.90;;;;;;4889472;29;20061;-80
2021/01/27 07:30:01;;;;;;;6.60;3.13;;;2.00;99.90;;;;;;4880853;29;20119;-77
2021/01/27 07:32:31;;;;;;;5.75;3.05;;;1.90;99.90;;;;;;4876965;29;20048;-82
2021/01/27 07:35:11;;;;;;;6.43;3.13;;;1.90;99.90;;;;;;4895947;29;20052;-80
2021/01/27 07:38:18;;;;;;;4.47;2.75;;;1.90;99.90;;;;;;4877607;29;20056;-82
2021/01/27 07:40:57;;;;;;;5.30;2.88;;;1.90;99.90;;;;;;4875419;29;20037;-80
2021/01/27 07:43:33;;;;;;;4.55;2.83;;;1.90;99.90;;;;;;4877303;29;20083;-78
2021/01/27 07:46:00;;;;;;;6.43;3.28;;;1.90;99.90;;;;;;4892095;29;20044;-79
2021/01/27 07:48:45;;;;;;;5.30;2.85;;;1.90;99.90;;;;;;4861532;29;20117;-79
2021/01/27 07:51:30;;;;;;;3.95;2.80;;;1.90;99.90;;;;;;4877067;29;20037;-81
2021/01/27 07:53:56;;;;;;;7.72;3.75;;;;;;;;;;4884110;29;20033;-81
2021/01/27 07:56:37;;;;;;;6.53;3.10;;;2.00;99.90;;;;;;4890433;29;20074;-81
2021/01/27 07:59:14;;;;;;;5.82;3.25;;;2.00;99.90;;;;;;4890566;29;20131;-83
2021/01/27 08:02:06;;;;;;;7.50;2.92;;;1.90;99.90;;;;;;4867715;29;20063;-81
2021/01/27 08:04:45;;;;;;;5.88;3.10;;;2.00;99.90;;;;;;4887888;29;20045;-80
2021/01/27 08:07:24;;;;;;;4.53;2.90;;;2.00;99.90;;;;;;4874424;29;20069;-81
2021/01/27 08:09:50;;;;;;;4.65;2.72;;;;;;;;;;4883429;29;20041;-78
2021/01/27 08:12:26;;;;;;;4.80;2.70;;;2.00;99.90;;;;;;4877139;29;20483;-80
2021/01/27 08:15:04;;;;;;;4.75;2.65;;;2.00;99.90;;;;;;4874271;29;20101;-80
2021/01/27 08:17:45;;;;;;;6.80;2.50;;;2.00;99.90;;;;;;4879950;29;20598;-80
2021/01/27 08:20:24;;;;;;;4.10;2.58;;;1.90;99.90;;;;;;4894735;29;20064;-82
2021/01/27 08:23:00;;;;;;;5.78;2.42;;;2.00;99.90;;;;;;4873557;29;20029;-80
2021/01/27 08:25:52;;;;;;;5.03;2.20;;;2.00;99.90;;;;;;4881983;29;20033;-79
2021/01/27 08:28:35;;;;;;;5.07;2.15;;;2.00;99.90;;;;;;4879964;29;20059;-79
2021/01/27 08:31:07;;;;;;;4.43;2.42;;;2.00;99.90;;;;;;4881146;29;20063;-80
2021/01/27 08:33:54;;;;;;;3.67;2.20;;;1.80;99.90;;;;;;4888190;29;20057;-80
2021/01/27 08:36:29;;;;;;;4.20;2.30;;;2.00;99.90;;;;;;4883406;29;20037;-80
2021/01/27 08:38:58;;;;;;;3.78;2.38;;;2.00;99.90;;;;;;4880510;29;20041;-82
2021/01/27 08:41:39;;;;;;;5.47;1.90;;;2.10;99.90;;;;;;4883799;29;20041;-78
2021/01/27 08:44:33;;;;;;;5.38;2.20;;;2.10;99.90;;;;;;4875789;29;20041;-78
2021/01/27 08:47:19;;;;;;;2.92;1.90;;;2.10;99.90;;;;;;4874104;29;20039;-79
2021/01/27 08:49:57;;;;;;;5.18;2.30;;;2.10;99.90;;;;;;4881827;29;20064;-78
2021/01/27 08:52:29;;;;;;;4.65;2.05;;;2.10;99.90;;;;;;4875030;29;20048;-77
2021/01/27 08:54:55;;;;;;;6.82;2.10;;;2.20;99.90;;;;;;4876001;29;20384;-78
2021/01/27 08:57:36;;;;;;;5.25;2.00;;;2.30;99.90;;;;;;4877772;29;20599;-78
2021/01/27 09:00:12;;;;;;;3.53;2.15;;;2.30;99.90;;;;;;4883276;29;20057;-78
2021/01/27 09:02:40;;;;;;;2.83;1.70;;;2.30;99.90;;;;;;4877127;29;20037;-77
2021/01/27 09:05:11;;;;;;;4.05;1.95;;;3.40;99.90;;;;;;4893244;29;20037;-77
2021/01/27 09:07:47;;;;;;;5.35;2.00;;;2.40;99.90;;;;;;4872054;29;20044;-77
2021/01/27 09:10:13;;;;;;;3.38;2.17;;;2.50;99.90;;;;;;4878497;29;20038;-76
2021/01/27 09:12:39;;;;;;;4.63;2.13;;;2.40;99.90;;;;;;4882778;29;20160;-78
2021/01/27 09:15:05;;;;;;;5.28;2.50;;;2.30;99.90;;;;;;4880726;29;20068;-77
2021/01/27 09:17:34;;;;;;;3.85;2.10;;;1.80;99.90;;;;;;4881446;29;20044;-76
2021/01/27 09:20:00;;;;;;;3.05;1.80;;;2.20;99.90;;;;;;4885638;29;20037;-79
2021/01/27 09:22:26;;;;;;;3.45;2.15;;;2.20;99.90;;;;;;4880559;29;20041;-78
2021/01/27 09:24:55;;;;;;;7.03;2.30;;;2.20;99.90;;;;;;4874911;29;20068;-77
2021/01/27 09:27:28;;;;;;;4.45;2.15;;;2.40;99.90;;;;;;4894816;29;20045;-78
2021/01/27 09:30:04;;;;;;;4.30;2.10;;;2.20;99.90;;;;;;4879190;29;20068;-78
2021/01/27 09:32:31;;;;;;;4.45;2.10;;;2.20;99.90;;;;;;4873414;29;20048;-78
2021/01/27 09:35:08;;;;;;;5.25;2.00;;;2.30;99.90;;;;;;4881201;29;20411;-78
2021/01/27 09:37:44;;;;;;;4.47;2.10;;;2.20;99.90;;;;;;4879276;29;20048;-78
2021/01/27 09:40:21;;;;;;;3.17;2.08;;;2.30;99.90;;;;;;4883313;29;20045;-78
2021/01/27 09:42:47;;;;;;;4.35;2.40;;;2.30;99.90;;;;;;4881566;29;20033;-75
2021/01/27 09:45:14;;;;;;;4.70;2.30;;;2.30;99.90;;;;;;4874877;29;20053;-79
2021/01/27 09:47:43;;;;;;;3.67;2.40;;;2.40;99.90;;;;;;4863777;29;20060;-82
2021/01/27 09:50:10;;;;;;;4.72;2.15;;;2.40;99.90;;;;;;4880162;29;20081;-80
2021/01/27 09:52:37;;;;;;;6.15;2.25;;;;;;;;;;4882055;29;20049;-78
2021/01/27 09:55:14;;;;;;;4.22;2.47;;;2.20;99.90;;;;;;4885485;29;20061;-76
2021/01/27 09:57:42;;;;;;;4.22;2.40;;;2.30;99.90;;;;;;4882988;29;20066;-77
2021/01/27 10:00:11;;;;;;;5.25;2.58;;;2.40;99.90;;;;;;4879697;29;20503;-80
2021/01/27 10:02:37;;;;;;;4.07;2.40;;;2.40;99.90;;;;;;4876497;29;20037;-79
2021/01/27 10:05:32;;;;;;;3.60;2.22;;;2.50;99.90;;;;;;4862963;29;20451;-78
2021/01/27 10:07:58;;;;;;;5.97;2.80;;;2.50;99.90;;;;;;4880234;29;20104;-77
2021/01/27 10:10:24;;;;;;;4.88;2.50;;;2.50;99.90;;;;;;4880464;29;20549;-78
2021/01/27 10:12:56;;;;;;;4.15;2.58;;;2.40;99.90;;;;;;4876150;29;20060;-77
2021/01/27 10:15:30;;;;;;;5.13;2.88;;;2.40;99.90;;;;;;4876945;29;20044;-78
2021/01/27 10:18:07;;;;;;;5.57;2.53;;;2.40;99.90;;;;;;4888635;29;20053;-76
2021/01/27 10:20:41;;;;;;;5.60;2.75;;;2.40;99.90;;;;;;4878882;29;20033;-77
2021/01/27 10:23:12;;;;;;;6.53;2.78;;;2.40;99.90;;;;;;4870197;29;20580;-78
2021/01/27 10:25:44;;;;;;;8.45;4.18;;;2.40;99.90;;;;;;4871444;29;20037;-75
2021/01/27 10:28:22;;;;;;;3.95;2.58;;;2.30;99.90;;;;;;4879343;29;20043;-79
2021/01/27 10:30:56;;;;;;;6.03;2.70;;;2.30;99.90;;;;;;4891527;29;20439;-78
2021/01/27 10:33:30;;;;;;;5.05;2.92;;;2.30;99.90;;;;;;4876951;29;20047;-80
2021/01/27 10:35:57;;;;;;;8.45;3.10;;;2.40;99.90;;;;;;4878092;29;20041;-78
2021/01/27 10:38:25;;;;;;;5.45;3.13;;;2.40;99.90;;;;;;4876381;29;20036;-77
2021/01/27 10:41:06;;;;;;;5.32;2.97;;;2.40;99.90;;;;;;4877467;29;20037;-76
2021/01/27 10:43:32;;;;;;;5.43;3.05;;;2.40;99.90;;;;;;4876893;29;20137;-79
2021/01/27 10:45:58;;;;;;;6.13;3.28;;;2.40;99.90;;;;;;4873433;29;20045;-76
2021/01/27 10:48:30;;;;;;;5.75;2.90;;;5.20;99.90;;;;;;4849182;29;20041;-82
2021/01/27 10:50:56;;;;;;;7.22;3.13;;;2.60;99.90;;;;;;4876478;29;20076;-78
2021/01/27 10:53:21;;;;;;;4.82;2.95;;;2.60;99.90;;;;;;4877114;29;20077;-75
2021/01/27 10:55:53;;;;;;;6.50;3.47;;;2.60;99.90;;;;;;4876661;29;20451;-76
2021/01/27 10:58:20;;;;;;;5.82;3.17;;;2.50;99.90;;;;;;4872489;29;20048;-77
2021/01/27 11:00:46;;;;;;;5.45;4.10;;;2.50;99.90;;;;;;4867029;29;20045;-76
2021/01/27 11:03:13;;;;;;;5.55;3.30;;;2.50;99.90;;;;;;4867049;29;20037;-80
2021/01/27 11:05:39;;;;;;;4.97;3.17;;;4.70;99.90;;;;;;4869009;29;20072;-76
2021/01/27 11:08:06;;;;;;;9.98;3.20;;;2.50;99.90;;;;;;4875249;29;20048;-75
2021/01/27 11:10:32;;;;;;;7.05;3.47;;;2.40;99.90;;;;;;4875571;29;20510;-78
2021/01/27 11:12:59;;;;;;;10.73;4.00;;;5.40;99.90;;;;;;4874768;29;20033;-79
2021/01/27 11:15:25;;;;;;;8.02;3.47;;;2.50;99.90;;;;;;4872435;29;20041;-80
2021/01/27 11:17:51;;;;;;;5.20;3.45;;;2.50;99.90;;;;;;4875376;29;20041;-80
2021/01/27 11:20:23;;;;;;;7.38;4.30;;;2.40;99.90;;;;;;4875817;29;20585;-77
2021/01/27 11:22:49;;;;;;;6.95;3.53;;;2.60;99.90;;;;;;4878221;29;20518;-79
2021/01/27 11:25:16;;;;;;;8.15;4.50;;;2.60;99.90;;;;;;4872620;29;20147;-80
2021/01/27 11:27:44;;;;;;;5.65;3.20;;;2.60;99.90;;;;;;4875914;29;20076;-78
2021/01/27 11:30:11;;;;;;;7.53;4.18;;;2.50;99.90;;;;;;4878258;29;20037;-79
2021/01/27 11:32:37;;;;;;;8.30;3.92;;;2.60;99.90;;;;;;4878088;29;20056;-79
2021/01/27 11:35:03;;;;;;;7.93;3.83;;;2.70;99.90;;;;;;4875279;29;20033;-78
2021/01/27 11:37:29;;;;;;;5.50;3.80;;;2.70;99.90;;;;;;4881658;29;20033;-76
2021/01/27 11:39:55;;;;;;;7.72;4.30;;;2.70;99.90;;;;;;4880182;29;20112;-79
2021/01/27 11:42:21;;;;;;;7.40;4.35;;;2.80;99.90;;;;;;4896252;29;20480;-78
2021/01/27 11:44:47;;;;;;;6.07;4.13;;;2.80;99.90;;;;;;4866645;29;20494;-79
2021/01/27 11:47:13;;;;;;;9.02;4.25;;;2.90;99.90;;;;;;4861780;29;20045;-79
2021/01/27 11:49:42;;;;;;;7.55;3.75;;;;;;;;;;4861529;29;20051;-78
2021/01/27 11:52:08;;;;;;;8.23;4.40;;;;;;;;;;4881237;29;20040;-79
2021/01/27 11:54:34;;;;;;;8.20;4.20;;;;;;;;;;4884551;29;20045;-79
2021/01/27 11:57:01;;;;;;;7.78;4.80;;;;;;;;;;4886191;29;20081;-78
2021/01/27 11:59:28;;;;;;;10.30;5.00;;;;;;;;;;4883246;29;20119;-80
2021/01/27 12:01:54;;;;;;;10.55;5.03;;;;;;;;;;4867254;29;20067;-78
2021/01/27 12:04:20;;;;;;;9.82;5.28;;;;;;;;;;4885656;29;20884;-77
2021/01/27 12:06:47;;;;;;;9.60;5.07;;;;;;;;;;4893886;29;20061;-78
2021/01/27 12:09:14;;;;;;;7.80;5.00;;;;;;;;;;4884889;29;20082;-78
2021/01/27 12:11:42;;;;;;;8.75;5.32;;;;;;;;;;4878500;29;20053;-78
2021/01/27 12:14:08;;;;;;;12.27;5.15;;;;;;;;;;4881706;29;20036;-76
2021/01/27 12:16:35;;;;;;;11.85;6.57;;;;;;;;;;4885393;29;20049;-79
2021/01/27 12:19:01;;;;;;;9.88;5.35;;;;;;;;;;4880059;29;20068;-77
2021/01/27 12:21:27;;;;;;;10.95;6.75;;;;;;;;;;4883148;29;20132;-79
2021/01/27 12:23:53;;;;;;;13.60;5.97;;;;;;;;;;4874411;29;20038;-79
2021/01/27 12:26:19;;;;;;;11.52;5.55;;;;;;;;;;4881556;29;20124;-79
2021/01/27 12:28:49;;;;;;;11.07;6.10;;;2.70;99.90;;;;;;4878659;29;20045;-77
2021/01/27 12:31:14;;;;;;;10.00;6.03;;;2.70;99.90;;;;;;4859905;29;20045;-75
2021/01/27 12:33:41;;;;;;;11.15;5.82;;;2.70;99.90;;;;;;4872615;29;20048;-75
2021/01/27 12:36:07;;;;;;;9.50;5.65;;;2.40;99.90;;;;;;4876023;29;20060;-77
2021/01/27 12:38:32;;;;;;;13.65;6.30;;;2.70;99.90;;;;;;4876266;29;20033;-80
2021/01/27 12:40:59;;;;;;;11.77;6.55;;;2.80;99.90;;;;;;4877219;29;20518;-77
2021/01/27 12:43:25;;;;;;;11.18;5.75;;;2.80;99.90;;;;;;4878283;29;20048;-77
2021/01/27 12:45:51;;;;;;;10.82;6.68;;;2.80;99.90;;;;;;4874627;29;20037;-77
2021/01/27 12:48:17;;;;;;;14.43;6.85;;;2.80;99.90;;;;;;4872789;29;20128;-78
2021/01/27 12:50:43;;;;;;;15.85;6.65;;;2.80;99.90;;;;;;4875062;29;20068;-79
2021/01/27 12:53:09;;;;;;;12.70;6.88;;;;;;;;;;4862370;29;20075;-78
2021/01/27 12:55:35;;;;;;;14.65;7.50;;;;;;;;;;4878760;29;20041;-79
2021/01/27 12:58:01;;;;;;;13.40;7.18;;;2.90;99.90;;;;;;4878428;29;20049;-79
2021/01/27 13:00:28;;;;;;;14.93;7.25;;;2.80;99.90;;;;;;4878961;29;20076;-78
2021/01/27 13:02:55;;;;;;;15.32;8.20;;;2.90;99.90;;;;;;4875347;29;20074;-79
2021/01/27 13:05:25;;;;;;;11.65;7.03;;;2.80;99.90;;;;;;4869612;29;20046;-79
2021/01/27 13:07:51;;;;;;;16.00;8.27;;;2.80;99.90;;;;;;4876400;29;20049;-79
2021/01/27 13:10:18;;;;;;;40.22;18.35;;;2.90;99.90;;;;;;4876754;29;20045;-78
2021/01/27 13:12:45;;;;;;;10.38;7.13;;;2.90;99.90;;;;;;4878863;29;20128;-79
2021/01/27 13:15:14;;;;;;;14.25;7.90;;;4.50;99.90;;;;;;4884089;29;20266;-78
2021/01/27 13:17:40;;;;;;;16.73;8.85;;;2.90;99.90;;;;;;4886716;29;20037;-79
2021/01/27 13:20:09;;;;;;;14.07;8.30;;;3.10;99.90;;;;;;4885339;29;20041;-80
2021/01/27 13:22:36;;;;;;;12.82;8.07;;;3.10;99.90;;;;;;4884536;29;20072;-81
2021/01/27 13:25:02;;;;;;;14.80;9.07;;;3.40;99.90;;;;;;4868734;29;20033;-79
2021/01/27 13:27:28;;;;;;;12.50;8.20;;;3.00;99.90;;;;;;4880109;29;20128;-80
2021/01/27 13:29:54;;;;;;;13.75;8.85;;;3.00;99.90;;;;;;4879908;29;20069;-81
2021/01/27 13:32:21;;;;;;;12.60;8.07;;;3.50;99.90;;;;;;4864785;29;20045;-78